KGON/GON METAR and TAF weather

Enter ICAO airport designator
Station Type Date Time Source
KGON METAR 2020/11/28 19:56 UTC NOAA

KGON 281956Z 25009KT 10SM OVC090 12/04 A2991 RMK AO2 SLP128 T01170044


Station Type Date Time Source
KGON Decoded METAR 2020/11/28 19:56 UTC NOAA

GROTON/NEW LONDON AIRPORT , CT, United States (KGON) 41-20N 72-03W 3M
Nov 28, 2020 - 02:56 PM EST / 2020.11.28 1956 UTC
Wind: from the WSW (250 degrees) at 10 MPH (9 KT):0
Visibility: 10 mile(s):0
Sky conditions: overcast
Temperature: 53.1 F (11.7 C)
Dew Point: 39.9 F (4.4 C)
Relative Humidity: 60%
Pressure (altimeter): 29.91 in. Hg (1012 hPa)
ob: KGON 281956Z 25009KT 10SM OVC090 12/04 A2991 RMK AO2 SLP128 T01170044
cycle: 20

Station Type Date Time Source
KGON TAF 2020/11/28 21:34 UTC NOAA

TAF
AMD KGON 282032Z 2821/2918 25009KT P6SM BKN090
FM290400 VRB04KT P6SM SCT050
FM291200 27003KT P6SM BKN250

Example: see airport list